Time;durP1;ratioP1;P1;durP2;ratioP2;P2;SDS_P1;SDS_P2;PMS_P1;PMS_P2;Temp;Humidity;BMP_temperature;BMP_pressure;BME280_temperature;BME280_humidity;BME280_pressure;Samples;Min_cycle;Max_cycle;Signal;HPM_P1;HPM_P2
2023/03/19 00:00:33;;;;;;;3.23;2.00;;;12.70;97.70;;;;;;5060126;28;20168;-87
2023/03/19 00:02:59;;;;;;;3.53;2.53;;;12.80;98.10;;;;;;5060278;28;20247;-85
2023/03/19 00:05:27;;;;;;;3.30;2.07;;;12.70;98.70;;;;;;5053579;28;20183;-93
2023/03/19 00:07:53;;;;;;;4.37;2.43;;;12.70;99.90;;;;;;5042020;28;20316;-94
2023/03/19 00:10:19;;;;;;;4.77;2.40;;;12.70;99.50;;;;;;5042662;28;20622;-93
2023/03/19 00:12:45;;;;;;;4.00;2.33;;;12.70;99.80;;;;;;5041451;28;20526;-93
2023/03/19 00:15:13;;;;;;;4.13;2.47;;;12.80;99.40;;;;;;5046559;28;20195;-88
2023/03/19 00:17:39;;;;;;;4.73;2.73;;;12.70;99.00;;;;;;5051400;28;20199;-90
2023/03/19 00:20:05;;;;;;;3.60;2.23;;;12.60;99.90;;;;;;5050116;28;20180;-92
2023/03/19 00:22:31;;;;;;;4.53;2.80;;;12.60;99.90;;;;;;5046164;28;20237;-92
2023/03/19 00:25:13;;;;;;;4.80;2.87;;;12.60;99.90;;;;;;5050302;28;20523;-88
2023/03/19 00:27:45;;;;;;;4.10;2.47;;;12.50;99.90;;;;;;5052610;28;20154;-87
2023/03/19 00:30:11;;;;;;;5.30;2.93;;;12.50;99.90;;;;;;5054232;28;20197;-90
2023/03/19 00:32:39;;;;;;;5.97;3.37;;;12.50;99.90;;;;;;5050113;28;20264;-92
2023/03/19 00:35:07;;;;;;;4.93;3.03;;;12.50;99.90;;;;;;5043749;28;20185;-92
2023/03/19 00:37:33;;;;;;;5.47;3.13;;;12.50;99.90;;;;;;5042261;28;20249;-90
2023/03/19 00:40:00;;;;;;;4.77;3.00;;;12.50;99.90;;;;;;5042361;28;20246;-91
2023/03/19 00:42:43;;;;;;;5.37;2.87;;;12.50;99.90;;;;;;5040897;28;20208;-90
2023/03/19 00:45:10;;;;;;;4.83;3.17;;;12.40;99.90;;;;;;5043635;28;20196;-88
2023/03/19 00:47:36;;;;;;;4.30;3.20;;;12.40;99.90;;;;;;5049353;28;20190;-93
2023/03/19 00:50:04;;;;;;;5.00;3.13;;;12.30;99.90;;;;;;5050161;28;20235;-89
2023/03/19 00:52:30;;;;;;;6.23;3.03;;;12.30;99.90;;;;;;5048432;28;20209;-87
2023/03/19 00:54:57;;;;;;;5.60;3.33;;;12.30;99.90;;;;;;5055690;28;20162;-85
2023/03/19 00:57:24;;;;;;;6.57;3.87;;;12.20;99.90;;;;;;5041598;28;20177;-88
2023/03/19 00:59:50;;;;;;;4.50;3.40;;;12.40;99.90;;;;;;5058461;28;20174;-85
2023/03/19 01:02:16;;;;;;;5.73;3.97;;;12.30;99.90;;;;;;5054195;28;20218;-88
2023/03/19 01:04:42;;;;;;;4.50;3.70;;;12.30;99.90;;;;;;5048504;28;20181;-90
2023/03/19 01:07:08;;;;;;;6.03;3.70;;;12.30;99.90;;;;;;5041196;28;20184;-91
2023/03/19 01:09:34;;;;;;;5.80;3.90;;;12.40;99.90;;;;;;5041867;28;20274;-90
2023/03/19 01:12:03;;;;;;;5.60;3.83;;;12.50;99.90;;;;;;5040059;28;20174;-92
2023/03/19 01:14:31;;;;;;;7.40;4.30;;;12.40;99.90;;;;;;5022966;28;20199;-92
2023/03/19 01:16:56;;;;;;;6.10;3.63;;;12.40;99.90;;;;;;5053751;28;20197;-86
2023/03/19 01:19:24;;;;;;;5.40;3.87;;;12.50;99.90;;;;;;5052741;28;20174;-92
2023/03/19 01:21:50;;;;;;;6.93;4.10;;;12.50;99.90;;;;;;5048531;28;20164;-88
2023/03/19 01:24:16;;;;;;;5.07;4.03;;;12.50;99.90;;;;;;5055318;28;20194;-94
2023/03/19 01:26:43;;;;;;;6.77;4.17;;;12.50;99.90;;;;;;5046943;28;20180;-88
2023/03/19 01:29:09;;;;;;;6.97;4.33;;;12.60;99.90;;;;;;5048086;28;20143;-92
2023/03/19 01:31:36;;;;;;;5.77;4.23;;;12.70;99.90;;;;;;5040275;28;20181;-92
2023/03/19 01:34:01;;;;;;;5.80;4.20;;;12.60;99.90;;;;;;5038858;28;20175;-94
2023/03/19 01:36:28;;;;;;;5.70;3.57;;;12.90;99.90;;;;;;5040718;28;20269;-94
2023/03/19 01:38:55;;;;;;;6.07;4.30;;;12.70;99.90;;;;;;5050408;28;20257;-92
2023/03/19 01:41:22;;;;;;;5.93;4.23;;;12.70;99.90;;;;;;5054829;28;20221;-93
2023/03/19 01:43:47;;;;;;;6.30;4.10;;;12.70;99.90;;;;;;5046385;28;20236;-92
2023/03/19 01:46:16;;;;;;;7.17;3.97;;;12.50;99.90;;;;;;5039645;28;20587;-93
2023/03/19 01:48:50;;;;;;;6.20;4.13;;;12.50;99.90;;;;;;5038018;28;20220;-94
2023/03/19 01:51:18;;;;;;;5.37;3.97;;;12.40;99.90;;;;;;5036404;28;20187;-90
2023/03/19 01:53:49;;;;;;;5.93;4.50;;;12.50;99.90;;;;;;5049566;28;20230;-84
2023/03/19 01:56:19;;;;;;;5.03;3.80;;;12.70;99.90;;;;;;5046658;28;20174;-91
2023/03/19 01:58:47;;;;;;;6.90;4.50;;;12.60;99.90;;;;;;5038462;28;20196;-92
2023/03/19 02:01:13;;;;;;;5.70;4.47;;;12.70;99.90;;;;;;5043420;28;20177;-89
2023/03/19 02:03:40;;;;;;;5.73;4.10;;;12.70;99.90;;;;;;5057212;28;20207;-83
2023/03/19 02:06:08;;;;;;;6.53;4.50;;;12.60;99.90;;;;;;5053328;28;20170;-85
2023/03/19 02:08:35;;;;;;;9.70;4.43;;;12.60;99.90;;;;;;5050631;28;20181;-87
2023/03/19 02:11:01;;;;;;;8.10;4.27;;;12.60;99.90;;;;;;5039515;28;20577;-91
2023/03/19 02:13:27;;;;;;;7.67;4.73;;;12.80;99.90;;;;;;5037833;28;20250;-87
2023/03/19 02:15:53;;;;;;;5.93;4.83;;;12.70;99.90;;;;;;5038143;28;20197;-94
2023/03/19 02:18:21;;;;;;;5.87;4.67;;;12.80;99.90;;;;;;5037714;28;20178;-93
2023/03/19 02:20:58;;;;;;;5.60;4.47;;;12.80;99.90;;;;;;5043380;28;20177;-91
2023/03/19 02:23:52;;;;;;;7.47;4.90;;;12.70;99.90;;;;;;5040701;28;20197;-90
2023/03/19 02:26:23;;;;;;;7.57;4.47;;;12.70;99.90;;;;;;5039903;28;20256;-92
2023/03/19 02:28:50;;;;;;;6.50;4.57;;;12.60;99.90;;;;;;5039284;28;20197;-89
2023/03/19 02:31:17;;;;;;;6.30;4.83;;;12.60;99.90;;;;;;5052452;28;20167;-86
2023/03/19 02:33:43;;;;;;;7.23;5.07;;;12.50;99.90;;;;;;5054751;28;20193;-86
2023/03/19 02:36:16;;;;;;;6.13;5.10;;;12.50;99.90;;;;;;5055186;28;20178;-89
2023/03/19 02:38:43;;;;;;;8.80;5.70;;;12.50;99.90;;;;;;5040685;28;20177;-91
2023/03/19 02:41:09;;;;;;;8.40;6.03;;;12.70;99.90;;;;;;5051115;28;20185;-89
2023/03/19 02:43:38;;;;;;;7.80;6.40;;;12.90;99.90;;;;;;5039315;28;20637;-93
2023/03/19 02:46:08;;;;;;;9.30;6.30;;;12.60;99.90;;;;;;5037523;28;20266;-91
2023/03/19 02:48:35;;;;;;;8.23;6.07;;;12.40;99.90;;;;;;5045929;28;20188;-87
2023/03/19 02:51:01;;;;;;;6.83;5.60;;;12.40;99.90;;;;;;5054282;28;20174;-85
2023/03/19 02:53:26;;;;;;;8.27;6.27;;;12.30;99.90;;;;;;5051767;28;20169;-91
2023/03/19 02:55:53;;;;;;;8.90;6.57;;;12.20;99.90;;;;;;5056540;28;20236;-88
2023/03/19 02:58:19;;;;;;;9.90;6.90;;;12.20;99.90;;;;;;5053430;28;20177;-88
2023/03/19 03:00:45;;;;;;;8.00;7.20;;;12.30;99.90;;;;;;5044624;28;20309;-91
2023/03/19 03:03:11;;;;;;;8.37;7.20;;;12.40;99.90;;;;;;5036860;28;20232;-93
2023/03/19 03:05:37;;;;;;;8.47;7.37;;;12.70;99.90;;;;;;5038151;28;20273;-92
2023/03/19 03:08:03;;;;;;;8.30;7.10;;;12.40;99.90;;;;;;5041097;28;20179;-87
2023/03/19 03:10:30;;;;;;;9.13;7.70;;;12.30;99.90;;;;;;5041607;28;20182;-91
2023/03/19 03:12:57;;;;;;;8.23;7.37;;;12.40;99.90;;;;;;5052682;28;20178;-90
2023/03/19 03:15:24;;;;;;;7.93;7.07;;;12.30;99.90;;;;;;5056032;28;20190;-84
2023/03/19 03:17:50;;;;;;;8.03;7.23;;;12.30;99.90;;;;;;5057056;28;20179;-88
2023/03/19 03:20:16;;;;;;;9.13;7.53;;;12.30;99.90;;;;;;5052708;28;20200;-85
2023/03/19 03:22:45;;;;;;;8.53;7.63;;;12.30;99.90;;;;;;5046145;28;20289;-93
2023/03/19 03:25:13;;;;;;;8.67;7.70;;;12.50;99.90;;;;;;5039994;28;20183;-93
2023/03/19 03:27:38;;;;;;;8.73;7.30;;;12.50;99.90;;;;;;5037597;28;20204;-94
2023/03/19 03:30:07;;;;;;;9.57;8.03;;;12.50;99.90;;;;;;5038247;28;20161;-93
2023/03/19 03:32:37;;;;;;;9.13;8.20;;;12.40;99.90;;;;;;5037443;28;20203;-90
2023/03/19 03:35:04;;;;;;;8.77;7.47;;;12.30;99.90;;;;;;5035838;28;20173;-91
2023/03/19 03:37:30;;;;;;;9.53;7.90;;;12.20;99.90;;;;;;5038815;28;20260;-89
2023/03/19 03:39:56;;;;;;;9.53;8.17;;;12.10;99.90;;;;;;5037649;28;20248;-90
2023/03/19 03:42:21;;;;;;;9.43;8.43;;;12.10;99.90;;;;;;5033299;28;20680;-87
2023/03/19 03:44:47;;;;;;;10.40;8.80;;;12.00;99.90;;;;;;5043107;28;20181;-90
2023/03/19 03:47:13;;;;;;;10.37;8.63;;;12.00;99.90;;;;;;5036310;28;20264;-92
2023/03/19 03:49:38;;;;;;;10.90;8.67;;;11.90;99.90;;;;;;5035202;28;20171;-94
2023/03/19 03:52:05;;;;;;;9.67;8.53;;;11.90;99.90;;;;;;5035728;28;20668;-91
2023/03/19 03:54:31;;;;;;;12.27;8.77;;;12.00;99.90;;;;;;5040955;28;20241;-83
2023/03/19 03:56:56;;;;;;;10.07;8.87;;;11.90;99.90;;;;;;5039432;28;20158;-84
2023/03/19 03:59:24;;;;;;;12.13;9.87;;;11.90;99.90;;;;;;5056334;28;20170;-85
2023/03/19 04:01:51;;;;;;;10.67;9.53;;;12.10;99.90;;;;;;5056681;28;20177;-85
2023/03/19 04:04:19;;;;;;;12.47;9.37;;;12.10;99.90;;;;;;5036428;28;20176;-93
2023/03/19 04:06:47;;;;;;;11.73;10.37;;;11.90;99.90;;;;;;5038523;28;20169;-92
2023/03/19 04:09:13;;;;;;;13.07;10.83;;;11.90;99.90;;;;;;5036363;28;20180;-92
2023/03/19 04:11:40;;;;;;;11.33;9.87;;;11.70;99.90;;;;;;5036386;28;20182;-92
2023/03/19 04:14:06;;;;;;;13.67;11.47;;;11.70;99.90;;;;;;5038808;28;20193;-94
2023/03/19 04:16:32;;;;;;;11.70;10.33;;;11.60;99.90;;;;;;5034249;28;20597;-92
2023/03/19 04:18:58;;;;;;;13.10;9.23;;;11.50;99.90;;;;;;5035309;28;20249;-91
2023/03/19 04:21:25;;;;;;;10.93;9.00;;;11.40;99.90;;;;;;5035219;28;20257;-92
2023/03/19 04:23:51;;;;;;;11.53;9.20;;;11.30;99.90;;;;;;5038225;28;20213;-92
2023/03/19 04:26:16;;;;;;;12.10;8.33;;;11.30;99.90;;;;;;5042914;28;20177;-90
2023/03/19 04:28:42;;;;;;;11.13;8.53;;;11.40;99.90;;;;;;5054515;28;20616;-89
2023/03/19 04:31:09;;;;;;;10.73;8.07;;;11.50;99.90;;;;;;5045621;28;20165;-92
2023/03/19 04:33:35;;;;;;;10.17;8.47;;;11.40;99.90;;;;;;5039158;28;20622;-91
2023/03/19 04:36:02;;;;;;;9.30;8.30;;;11.50;99.90;;;;;;5038760;28;20219;-93
2023/03/19 04:38:28;;;;;;;9.20;8.27;;;11.40;99.90;;;;;;5023354;28;20186;-92
2023/03/19 04:40:55;;;;;;;9.93;7.80;;;11.60;99.90;;;;;;5040105;28;20257;-91
2023/03/19 04:43:23;;;;;;;10.30;8.13;;;11.40;99.90;;;;;;5039786;28;20197;-93
2023/03/19 04:45:49;;;;;;;10.00;8.20;;;11.30;99.90;;;;;;5040065;28;20691;-93
2023/03/19 04:48:17;;;;;;;11.07;9.50;;;11.30;99.90;;;;;;5049991;28;20188;-87
2023/03/19 04:50:46;;;;;;;10.13;9.07;;;11.60;99.90;;;;;;5045745;28;20193;-89
2023/03/19 04:53:11;;;;;;;10.77;8.40;;;11.50;99.90;;;;;;5048626;28;20177;-89
2023/03/19 04:55:38;;;;;;;11.23;9.70;;;11.50;99.90;;;;;;5047160;28;20200;-91
2023/03/19 04:58:04;;;;;;;11.00;9.70;;;11.40;99.90;;;;;;5028173;28;20181;-93
2023/03/19 05:00:30;;;;;;;13.80;9.70;;;11.60;99.90;;;;;;5046054;28;20177;-89
2023/03/19 05:02:56;;;;;;;12.33;9.40;;;11.40;99.90;;;;;;5041313;28;20680;-90
2023/03/19 05:05:22;;;;;;;12.43;10.00;;;11.20;99.90;;;;;;5038379;28;20169;-90
2023/03/19 05:07:47;;;;;;;12.90;9.70;;;11.20;99.90;;;;;;5040058;28;20198;-93
2023/03/19 05:10:13;;;;;;;11.43;9.97;;;11.10;99.90;;;;;;5038898;28;20181;-91
2023/03/19 05:12:39;;;;;;;12.80;9.23;;;11.10;99.90;;;;;;5039002;28;20178;-92
2023/03/19 05:15:07;;;;;;;13.17;9.40;;;11.00;99.90;;;;;;5056032;28;20197;-84
2023/03/19 05:17:36;;;;;;;10.53;9.40;;;10.90;99.90;;;;;;5056828;28;20251;-85
2023/03/19 05:20:03;;;;;;;14.80;10.33;;;10.90;99.90;;;;;;5059199;28;20230;-82
2023/03/19 05:22:29;;;;;;;11.13;9.37;;;10.80;99.90;;;;;;5059223;28;20228;-88
2023/03/19 05:24:56;;;;;;;12.47;9.67;;;10.80;99.90;;;;;;5054680;28;20174;-85
2023/03/19 05:27:28;;;;;;;12.27;9.37;;;10.80;99.90;;;;;;5054715;28;20157;-85
2023/03/19 05:29:53;;;;;;;12.60;9.27;;;10.80;99.90;;;;;;5029705;28;20278;-91
2023/03/19 05:32:20;;;;;;;11.20;9.33;;;10.80;99.90;;;;;;5040974;28;20170;-86
2023/03/19 05:34:45;;;;;;;13.40;9.93;;;10.60;99.90;;;;;;5055730;28;20186;-84
2023/03/19 05:37:11;;;;;;;13.57;10.03;;;10.80;99.90;;;;;;5046358;28;20190;-91
2023/03/19 05:39:36;;;;;;;12.47;8.77;;;10.60;99.90;;;;;;5038642;28;20525;-92
2023/03/19 05:42:02;;;;;;;15.77;11.27;;;10.70;99.90;;;;;;5037378;28;20202;-88
2023/03/19 05:44:28;;;;;;;15.20;13.33;;;10.60;99.90;;;;;;5052217;28;20169;-83
2023/03/19 05:46:54;;;;;;;17.57;14.77;;;10.50;99.90;;;;;;5043726;28;20178;-90
2023/03/19 05:49:20;;;;;;;16.80;14.50;;;10.60;99.90;;;;;;5047696;28;20170;-87
2023/03/19 05:51:46;;;;;;;17.43;15.30;;;10.50;99.90;;;;;;5055614;28;20180;-86
2023/03/19 05:54:12;;;;;;;16.10;13.23;;;10.60;99.90;;;;;;5046736;28;20264;-88
2023/03/19 05:56:38;;;;;;;15.80;11.50;;;10.60;99.90;;;;;;5057324;28;20180;-84
2023/03/19 05:59:04;;;;;;;13.23;10.13;;;10.50;99.90;;;;;;5056688;28;20182;-85
2023/03/19 06:01:30;;;;;;;12.23;9.50;;;10.60;99.90;;;;;;5045718;28;20260;-92
2023/03/19 06:03:56;;;;;;;12.07;8.80;;;10.40;99.90;;;;;;5038439;28;20216;-93
2023/03/19 06:06:22;;;;;;;12.17;8.53;;;10.40;99.90;;;;;;5037416;28;20256;-93
2023/03/19 06:08:47;;;;;;;12.33;8.20;;;10.40;99.90;;;;;;5039482;28;20196;-91
2023/03/19 06:11:13;;;;;;;11.17;7.90;;;10.40;99.90;;;;;;5038142;28;20245;-93
2023/03/19 06:13:39;;;;;;;9.87;7.90;;;10.50;99.90;;;;;;5037898;28;20225;-92
2023/03/19 06:16:08;;;;;;;11.80;8.07;;;10.60;99.90;;;;;;5037594;28;20189;-91
2023/03/19 06:18:34;;;;;;;11.57;8.10;;;10.60;99.90;;;;;;5039269;28;20177;-91
2023/03/19 06:21:00;;;;;;;14.10;8.27;;;10.70;99.90;;;;;;5039546;28;20173;-90
2023/03/19 06:23:26;;;;;;;10.07;7.83;;;10.50;99.90;;;;;;5040538;28;20213;-89
2023/03/19 06:25:51;;;;;;;13.07;7.97;;;10.40;99.90;;;;;;5050949;28;20173;-92
2023/03/19 06:28:17;;;;;;;11.97;7.50;;;10.50;99.90;;;;;;5050508;28;20184;-89
2023/03/19 06:30:44;;;;;;;12.57;7.30;;;10.40;99.90;;;;;;5054497;28;20170;-85
2023/03/19 06:33:10;;;;;;;11.47;7.47;;;10.30;99.90;;;;;;5054470;28;20169;-85
2023/03/19 06:35:35;;;;;;;9.53;7.40;;;10.30;99.90;;;;;;5054848;28;20178;-88
2023/03/19 06:38:01;;;;;;;10.07;7.67;;;10.30;99.90;;;;;;5047424;28;20241;-92
2023/03/19 06:40:27;;;;;;;12.10;7.53;;;10.30;99.90;;;;;;5041350;28;20200;-89
2023/03/19 06:42:52;;;;;;;9.97;7.00;;;10.60;99.90;;;;;;5041585;28;20206;-89
2023/03/19 06:45:19;;;;;;;12.80;7.30;;;10.50;99.90;;;;;;5037817;28;20220;-92
2023/03/19 06:47:46;;;;;;;11.83;7.50;;;10.50;99.90;;;;;;5037826;28;20181;-86
2023/03/19 06:50:15;;;;;;;11.47;7.03;;;10.70;99.90;;;;;;5039151;28;20182;-87
2023/03/19 06:52:41;;;;;;;8.67;6.83;;;10.60;99.90;;;;;;5047212;28;20174;-94
2023/03/19 06:55:08;;;;;;;12.20;7.23;;;10.60;99.90;;;;;;5043275;28;20181;-90
2023/03/19 06:57:35;;;;;;;11.20;7.70;;;10.60;99.90;;;;;;5046680;28;20185;-87
2023/03/19 07:00:00;;;;;;;9.33;6.80;;;10.60;99.90;;;;;;5051527;28;20200;-89
2023/03/19 07:02:26;;;;;;;11.67;6.83;;;10.70;99.90;;;;;;5055762;28;20201;-86
2023/03/19 07:04:52;;;;;;;9.97;6.60;;;11.00;99.90;;;;;;5053395;28;20205;-88
2023/03/19 07:07:18;;;;;;;10.33;6.90;;;10.90;99.90;;;;;;5048893;28;20185;-91
2023/03/19 07:09:44;;;;;;;11.33;7.20;;;10.90;99.90;;;;;;5041932;28;20545;-89
2023/03/19 07:12:12;;;;;;;11.77;6.83;;;11.00;99.90;;;;;;5038852;28;20208;-92
2023/03/19 07:14:37;;;;;;;9.17;5.80;;;11.00;99.90;;;;;;5044706;28;20182;-91
2023/03/19 07:17:03;;;;;;;7.43;5.40;;;11.00;99.90;;;;;;5039481;28;20189;-90
2023/03/19 07:19:29;;;;;;;11.50;6.20;;;11.00;99.90;;;;;;5039785;28;20236;-86
2023/03/19 07:21:54;;;;;;;12.83;5.70;;;10.90;99.90;;;;;;5039765;28;20185;-90
2023/03/19 07:24:20;;;;;;;10.13;5.50;;;10.90;99.90;;;;;;5022449;28;20641;-90
2023/03/19 07:26:46;;;;;;;10.83;5.90;;;11.00;99.90;;;;;;5040826;28;20264;-92
2023/03/19 07:29:16;;;;;;;8.67;5.63;;;11.20;99.90;;;;;;5039950;28;20231;-93
2023/03/19 07:31:42;;;;;;;10.67;6.10;;;10.90;99.90;;;;;;5037428;28;20173;-91
2023/03/19 07:34:08;;;;;;;9.77;5.77;;;11.00;99.90;;;;;;5038466;28;20260;-92
2023/03/19 07:36:33;;;;;;;11.17;6.40;;;11.40;99.90;;;;;;5047464;28;20181;-89
2023/03/19 07:38:59;;;;;;;10.43;6.60;;;11.30;99.90;;;;;;5050289;28;20192;-89
2023/03/19 07:41:25;;;;;;;9.40;6.37;;;11.30;99.90;;;;;;5041068;28;20257;-90
2023/03/19 07:43:51;;;;;;;8.83;5.90;;;11.20;99.90;;;;;;5043126;28;20209;-88
2023/03/19 07:46:18;;;;;;;11.57;6.10;;;11.30;99.90;;;;;;5057053;28;20272;-92
2023/03/19 07:48:43;;;;;;;8.67;5.87;;;11.50;99.90;;;;;;5054669;28;20196;-83
2023/03/19 07:51:16;;;;;;;12.20;6.00;;;11.50;99.90;;;;;;5056122;28;20162;-85
2023/03/19 07:53:41;;;;;;;10.00;5.57;;;11.60;99.00;;;;;;5030460;28;20173;-87
2023/03/19 07:56:12;;;;;;;13.80;6.20;;;11.70;97.40;;;;;;5035804;28;20167;-91
2023/03/19 07:58:38;;;;;;;12.03;5.97;;;11.70;95.40;;;;;;5053321;28;20173;-87
2023/03/19 08:01:04;;;;;;;12.60;5.60;;;11.80;95.30;;;;;;5053771;28;20174;-86
2023/03/19 08:03:29;;;;;;;12.40;6.23;;;11.90;93.10;;;;;;5052583;28;20228;-86
2023/03/19 08:05:58;;;;;;;12.33;5.20;;;12.20;91.30;;;;;;5057322;28;20161;-85
2023/03/19 08:08:25;;;;;;;12.53;5.30;;;12.10;85.30;;;;;;5044582;28;20181;-91
2023/03/19 08:10:53;;;;;;;10.13;5.27;;;12.20;83.90;;;;;;5043131;28;20184;-91
2023/03/19 08:13:19;;;;;;;11.37;5.73;;;12.10;80.40;;;;;;5021687;28;20266;-88
2023/03/19 08:15:45;;;;;;;12.87;5.77;;;12.00;84.20;;;;;;5021667;28;20178;-92
2023/03/19 08:18:12;;;;;;;13.00;5.77;;;12.30;82.80;;;;;;5026835;28;20194;-93
2023/03/19 08:20:38;;;;;;;11.03;5.47;;;12.40;79.60;;;;;;5043524;28;20614;-89
2023/03/19 08:23:04;;;;;;;11.90;5.73;;;12.40;73.90;;;;;;5038704;28;20248;-88
2023/03/19 08:25:31;;;;;;;13.23;5.13;;;12.50;68.40;;;;;;5040013;28;20729;-90
2023/03/19 08:27:58;;;;;;;10.87;5.20;;;12.70;64.10;;;;;;5043636;28;20249;-85
2023/03/19 08:30:24;;;;;;;13.60;5.33;;;12.90;54.10;;;;;;5046281;28;20192;-86
2023/03/19 08:32:50;;;;;;;13.43;5.20;;;12.90;50.60;;;;;;5040514;28;20183;-92
2023/03/19 08:35:16;;;;;;;9.57;4.60;;;12.80;51.30;;;;;;5042002;28;20640;-91
2023/03/19 08:37:42;;;;;;;10.10;4.47;;;12.80;49.60;;;;;;5040189;28;20181;-87
2023/03/19 08:40:08;;;;;;;9.23;4.70;;;12.90;47.60;;;;;;5020779;28;20179;-86
2023/03/19 08:42:34;;;;;;;10.30;4.73;;;12.90;43.10;;;;;;5031676;28;20202;-88
2023/03/19 08:45:00;;;;;;;11.43;4.60;;;12.90;40.30;;;;;;5038365;28;20239;-85
2023/03/19 08:47:26;;;;;;;13.63;4.67;;;13.10;38.20;;;;;;5036317;28;20274;-88
2023/03/19 08:49:52;;;;;;;12.33;4.47;;;13.20;34.90;;;;;;5022723;28;20507;-86
2023/03/19 08:52:18;;;;;;;13.57;4.83;;;13.30;28.50;;;;;;5037557;28;20245;-86
2023/03/19 08:54:44;;;;;;;10.37;4.40;;;13.50;26.10;;;;;;5040098;28;20669;-87
2023/03/19 08:57:11;;;;;;;12.83;4.77;;;13.30;19.10;;;;;;5038369;28;20175;-88
2023/03/19 08:59:37;;;;;;;10.40;4.37;;;13.40;19.80;;;;;;5039797;28;20599;-87
2023/03/19 09:02:02;;;;;;;10.40;4.07;;;13.40;18.20;;;;;;5039909;28;20173;-88
2023/03/19 09:04:28;;;;;;;10.23;4.40;;;13.30;19.30;;;;;;5044104;28;20178;-89
2023/03/19 09:06:54;;;;;;;9.83;4.33;;;13.50;20.70;;;;;;5044767;28;20170;-86
2023/03/19 09:09:22;;;;;;;9.00;4.40;;;13.30;17.00;;;;;;5041476;28;20185;-84
2023/03/19 09:11:49;;;;;;;11.53;5.03;;;13.20;23.10;;;;;;5045649;28;20182;-87
2023/03/19 09:14:19;;;;;;;9.77;4.70;;;13.30;27.10;;;;;;5032713;28;20205;-85
2023/03/19 09:16:45;;;;;;;11.17;5.27;;;13.10;29.90;;;;;;5042030;28;20183;-89
2023/03/19 09:19:11;;;;;;;10.83;4.87;;;13.10;32.60;;;;;;5038938;28;20257;-85
2023/03/19 09:21:36;;;;;;;10.90;5.47;;;13.10;34.60;;;;;;5039868;28;20171;-86
2023/03/19 09:24:03;;;;;;;11.93;5.30;;;13.20;32.00;;;;;;5039837;28;20328;-86
2023/03/19 09:26:28;;;;;;;12.50;5.70;;;13.10;34.70;;;;;;5023623;28;20246;-83
2023/03/19 09:28:55;;;;;;;14.03;6.33;;;13.20;35.70;;;;;;5038850;28;20225;-90
2023/03/19 09:31:20;;;;;;;12.47;5.43;;;13.20;39.80;;;;;;5035388;28;20243;-88
2023/03/19 09:33:49;;;;;;;10.80;5.70;;;13.10;39.70;;;;;;5040898;28;20182;-85
2023/03/19 09:36:15;;;;;;;12.77;5.17;;;13.20;38.60;;;;;;5043083;28;20184;-85
2023/03/19 09:42:50;;;;;;;12.07;5.30;;;13.60;26.10;;;;;;4979970;28;20184;-88
2023/03/19 09:45:18;;;;;;;11.80;5.43;;;13.60;22.30;;;;;;4980179;28;20170;-87
2023/03/19 09:47:50;;;;;;;12.40;5.10;;;13.60;22.10;;;;;;4997370;28;20726;-85
2023/03/19 09:50:21;;;;;;;14.10;5.47;;;13.60;20.80;;;;;;5022778;28;20213;-85
2023/03/19 09:53:02;;;;;;;10.73;5.90;;;13.50;23.10;;;;;;5033018;28;20190;-88
2023/03/19 09:55:44;;;;;;;14.50;5.60;;;13.40;24.10;;;;;;5029400;28;20184;-93
2023/03/19 09:58:30;;;;;;;11.07;4.77;;;13.50;21.30;;;;;;5029753;28;20177;-93
2023/03/19 10:00:56;;;;;;;14.73;5.60;;;13.50;18.70;;;;;;5037005;28;20185;-84
2023/03/19 10:03:52;;;;;;;9.87;5.37;;;13.70;11.70;;;;;;5034690;28;20218;-85
2023/03/19 10:06:34;;;;;;;8.67;5.70;;;13.60;14.90;;;;;;5024746;28;20189;-86
2023/03/19 10:09:18;;;;;;;12.40;5.40;;;13.40;21.80;;;;;;5032514;28;20229;-86
2023/03/19 10:12:10;;;;;;;12.17;6.90;;;13.40;25.60;;;;;;5038514;28;20173;-86
2023/03/19 10:15:24;;;;;;;10.53;5.73;;;13.30;25.90;;;;;;5053331;28;20193;-88
2023/03/19 10:18:00;;;;;;;12.37;6.00;;;13.40;25.80;;;;;;5019512;28;20283;-88
2023/03/19 10:20:48;;;;;;;9.97;5.67;;;13.50;22.10;;;;;;5053330;28;20167;-86
2023/03/19 10:23:44;;;;;;;10.83;6.20;;;13.30;22.90;;;;;;5036778;28;20217;-86
2023/03/19 10:26:34;;;;;;;13.07;6.23;;;13.50;21.20;;;;;;5024551;28;20173;-89
2023/03/19 10:29:05;;;;;;;10.87;5.83;;;13.60;14.60;;;;;;5022626;28;20167;-87
2023/03/19 10:31:59;;;;;;;15.63;5.90;;;13.50;16.50;;;;;;5026345;28;20189;-90
2023/03/19 10:34:34;;;;;;;14.30;6.50;;;13.70;11.40;;;;;;5029870;28;20208;-88
2023/03/19 10:37:11;;;;;;;10.87;5.30;;;13.80;1.00;;;;;;5029750;28;20196;-86
2023/03/19 10:39:40;;;;;;;13.47;5.73;;;13.80;1.00;;;;;;5031928;28;20175;-84
2023/03/19 10:42:21;;;;;;;10.90;5.47;;;13.80;1.00;;;;;;5028229;28;20174;-84
2023/03/19 10:45:34;;;;;;;13.43;6.03;;;13.80;1.80;;;;;;5034883;28;20613;-86
2023/03/19 10:48:04;;;;;;;16.67;5.83;;;13.80;2.90;;;;;;5020366;28;20181;-85
2023/03/19 10:50:56;;;;;;;12.30;5.77;;;13.70;6.90;;;;;;5026139;28;20189;-89
2023/03/19 10:53:36;;;;;;;14.50;6.10;;;13.70;10.60;;;;;;5034607;28;20256;-86
2023/03/19 10:56:06;;;;;;;14.03;6.30;;;13.80;8.00;;;;;;5041939;28;20191;-89
2023/03/19 10:58:35;;;;;;;12.20;6.30;;;13.80;1.10;;;;;;5044242;28;20182;-87
2023/03/19 11:01:06;;;;;;;14.63;8.03;;;13.70;6.60;;;;;;5044924;28;20168;-85
2023/03/19 11:03:39;;;;;;;14.33;7.33;;;13.50;16.40;;;;;;5047442;28;20211;-86
2023/03/19 11:06:23;;;;;;;13.63;8.00;;;13.40;22.60;;;;;;5052832;28;20236;-85
2023/03/19 11:08:56;;;;;;;13.60;9.20;;;13.00;33.90;;;;;;5041524;28;20270;-88
2023/03/19 11:11:41;;;;;;;16.63;9.07;;;12.80;39.10;;;;;;5042113;28;20200;-83
2023/03/19 11:14:19;;;;;;;11.40;7.30;;;12.70;43.40;;;;;;5043021;28;20173;-85
2023/03/19 11:16:56;;;;;;;12.93;8.70;;;12.60;46.20;;;;;;5043357;28;20246;-88
2023/03/19 11:19:30;;;;;;;9.90;6.87;;;12.80;54.40;;;;;;5040319;28;20176;-91
2023/03/19 11:22:06;;;;;;;14.37;7.47;;;12.80;48.10;;;;;;5039264;28;20656;-91
2023/03/19 11:24:38;;;;;;;17.70;8.07;;;12.80;49.00;;;;;;5045057;28;20229;-90
2023/03/19 11:27:06;;;;;;;12.07;7.60;;;13.00;47.60;;;;;;5027807;28;20185;-87
2023/03/19 11:29:39;;;;;;;13.37;8.00;;;13.10;45.80;;;;;;5030389;28;20189;-89
2023/03/19 11:32:40;;;;;;;14.63;8.47;;;13.00;37.50;;;;;;5046041;28;20181;-91
2023/03/19 11:35:30;;;;;;;14.67;9.50;;;12.80;47.60;;;;;;5043884;28;20183;-90
2023/03/19 11:38:08;;;;;;;12.80;8.87;;;12.70;49.80;;;;;;5034410;28;20205;-86
2023/03/19 11:40:41;;;;;;;14.00;9.80;;;12.70;53.20;;;;;;5055217;28;20171;-86
2023/03/19 11:43:41;;;;;;;12.00;9.70;;;12.60;58.50;;;;;;5050751;28;20244;-86
2023/03/19 11:46:31;;;;;;;12.80;9.00;;;12.60;56.10;;;;;;5047213;28;20201;-85
2023/03/19 11:49:18;;;;;;;13.30;8.83;;;12.80;58.20;;;;;;5046727;28;20177;-86
2023/03/19 11:52:19;;;;;;;10.50;8.30;;;12.80;54.50;;;;;;5050142;28;20190;-87
2023/03/19 11:55:11;;;;;;;12.60;9.97;;;13.00;49.40;;;;;;4969941;28;20187;-85
2023/03/19 11:58:06;;;;;;;17.27;12.40;;;12.90;55.30;;;;;;5059952;28;20559;-89
2023/03/19 12:01:01;;;;;;;15.63;11.23;;;13.00;52.00;;;;;;5047629;28;20207;-89
2023/03/19 12:04:00;;;;;;;18.73;12.57;;;13.00;53.40;;;;;;5044022;28;20214;-89
2023/03/19 12:06:59;;;;;;;17.83;13.17;;;12.90;53.10;;;;;;5046274;28;20178;-87
2023/03/19 12:09:51;;;;;;;;;;;;;;;;;;;;;
2023/03/19 12:12:24;;;;;;;19.87;13.17;;;12.90;53.90;;;;;;5047143;28;20239;-88
2023/03/19 12:15:07;;;;;;;18.40;14.17;;;13.00;50.00;;;;;;5046597;28;20173;-88
2023/03/19 12:17:51;;;;;;;23.23;15.17;;;13.00;48.20;;;;;;5044506;28;20529;-92
2023/03/19 12:20:44;;;;;;;17.93;14.13;;;13.00;47.10;;;;;;5041958;28;20170;-86
2023/03/19 12:23:26;;;;;;;19.00;13.93;;;12.80;50.20;;;;;;5038731;28;20213;-87
2023/03/19 12:26:16;;;;;;;19.60;12.77;;;13.00;50.20;;;;;;5036860;28;20202;-87
2023/03/19 12:29:02;;;;;;;23.53;14.03;;;13.00;47.60;;;;;;5023122;28;20200;-88
2023/03/19 12:32:11;;;;;;;20.53;13.73;;;13.10;47.70;;;;;;5053272;28;20242;-87
2023/03/19 12:35:07;;;;;;;16.97;12.00;;;13.10;45.00;;;;;;5029936;28;20178;-87
2023/03/19 12:37:42;;;;;;;14.50;11.27;;;13.40;40.00;;;;;;5061825;28;20172;-89
2023/03/19 12:40:37;;;;;;;16.30;11.27;;;13.70;33.90;;;;;;5039445;28;20188;-85
2023/03/19 12:43:32;;;;;;;15.60;10.83;;;14.00;27.00;;;;;;5035917;28;20209;-87
2023/03/19 12:46:20;;;;;;;17.87;10.83;;;14.10;9.10;;;;;;4992856;28;20182;-86
2023/03/19 12:48:49;;;;;;;13.40;9.20;;;14.20;6.70;;;;;;5035371;28;20191;-87
2023/03/19 12:51:27;;;;;;;14.57;9.27;;;14.20;1.00;;;;;;5037252;28;20241;-84
2023/03/19 12:53:57;;;;;;;12.63;9.60;;;14.30;1.00;;;;;;5021416;28;20170;-89
2023/03/19 12:56:37;;;;;;;14.03;9.97;;;14.40;1.00;;;;;;5031285;28;20182;-87
2023/03/19 12:59:24;;;;;;;13.53;10.20;;;14.50;1.00;;;;;;5020723;28;20204;-86
2023/03/19 13:02:02;;;;;;;14.13;10.67;;;14.20;1.00;;;;;;5023316;28;20178;-84